sensor_id;sensor_type;location;lat;lon;timestamp;temperature;humidity
13998;DHT22;7074;51.508;7.018;2024-03-02T00:01:45;10.00;99.90
13998;DHT22;7074;51.508;7.018;2024-03-02T00:04:13;10.00;99.90
13998;DHT22;7074;51.508;7.018;2024-03-02T00:06:41;10.10;99.90
13998;DHT22;7074;51.508;7.018;2024-03-02T00:09:09;10.10;99.90
13998;DHT22;7074;51.508;7.018;2024-03-02T00:11:38;10.00;99.90
13998;DHT22;7074;51.508;7.018;2024-03-02T00:14:06;10.00;99.90
13998;DHT22;7074;51.508;7.018;2024-03-02T00:16:33;10.00;99.90
13998;DHT22;7074;51.508;7.018;2024-03-02T00:19:02;10.00;99.90
13998;DHT22;7074;51.508;7.018;2024-03-02T00:21:31;10.00;99.90
13998;DHT22;7074;51.508;7.018;2024-03-02T00:24:00;10.10;99.90
13998;DHT22;7074;51.508;7.018;2024-03-02T00:26:29;10.10;99.90
13998;DHT22;7074;51.508;7.018;2024-03-02T00:28:56;10.10;99.90
13998;DHT22;7074;51.508;7.018;2024-03-02T00:31:24;10.10;99.90
13998;DHT22;7074;51.508;7.018;2024-03-02T00:33:53;10.20;99.90
13998;DHT22;7074;51.508;7.018;2024-03-02T00:36:24;10.20;99.90
13998;DHT22;7074;51.508;7.018;2024-03-02T00:38:52;10.20;99.90
13998;DHT22;7074;51.508;7.018;2024-03-02T00:41:24;10.30;99.90
13998;DHT22;7074;51.508;7.018;2024-03-02T00:43:58;10.20;99.90
13998;DHT22;7074;51.508;7.018;2024-03-02T00:46:28;10.30;99.90
13998;DHT22;7074;51.508;7.018;2024-03-02T00:48:57;10.30;99.90
13998;DHT22;7074;51.508;7.018;2024-03-02T00:51:25;10.30;99.90
13998;DHT22;7074;51.508;7.018;2024-03-02T00:53:54;10.40;99.90
13998;DHT22;7074;51.508;7.018;2024-03-02T00:56:24;10.40;99.90
13998;DHT22;7074;51.508;7.018;2024-03-02T00:58:52;10.40;99.90
13998;DHT22;7074;51.508;7.018;2024-03-02T01:01:19;10.40;99.90
13998;DHT22;7074;51.508;7.018;2024-03-02T01:03:47;10.40;99.90
13998;DHT22;7074;51.508;7.018;2024-03-02T01:06:14;10.50;99.90
13998;DHT22;7074;51.508;7.018;2024-03-02T01:08:42;10.50;99.90
13998;DHT22;7074;51.508;7.018;2024-03-02T01:11:10;10.50;99.90
13998;DHT22;7074;51.508;7.018;2024-03-02T01:13:41;10.50;99.90
13998;DHT22;7074;51.508;7.018;2024-03-02T01:16:12;10.50;99.90
13998;DHT22;7074;51.508;7.018;2024-03-02T01:18:39;10.60;99.90
13998;DHT22;7074;51.508;7.018;2024-03-02T01:21:06;10.60;99.90
13998;DHT22;7074;51.508;7.018;2024-03-02T01:23:33;10.60;99.90
13998;DHT22;7074;51.508;7.018;2024-03-02T01:26:06;10.60;99.90
13998;DHT22;7074;51.508;7.018;2024-03-02T01:28:33;10.70;99.90
13998;DHT22;7074;51.508;7.018;2024-03-02T01:31:08;10.70;99.90
13998;DHT22;7074;51.508;7.018;2024-03-02T01:33:39;10.70;99.90
13998;DHT22;7074;51.508;7.018;2024-03-02T01:36:06;10.70;99.90
13998;DHT22;7074;51.508;7.018;2024-03-02T01:38:36;10.80;99.90
13998;DHT22;7074;51.508;7.018;2024-03-02T01:41:04;10.80;99.90
13998;DHT22;7074;51.508;7.018;2024-03-02T01:43:37;10.80;99.90
13998;DHT22;7074;51.508;7.018;2024-03-02T01:46:05;10.80;99.90
13998;DHT22;7074;51.508;7.018;2024-03-02T01:48:32;10.90;99.90
13998;DHT22;7074;51.508;7.018;2024-03-02T01:51:00;10.90;99.90
13998;DHT22;7074;51.508;7.018;2024-03-02T01:53:27;10.90;99.90
13998;DHT22;7074;51.508;7.018;2024-03-02T01:55:54;10.90;99.90
13998;DHT22;7074;51.508;7.018;2024-03-02T01:58:21;10.90;99.90
13998;DHT22;7074;51.508;7.018;2024-03-02T02:00:49;11.00;99.90
13998;DHT22;7074;51.508;7.018;2024-03-02T02:03:17;10.90;99.90
13998;DHT22;7074;51.508;7.018;2024-03-02T02:05:45;10.90;99.90
13998;DHT22;7074;51.508;7.018;2024-03-02T02:08:13;10.90;99.90
13998;DHT22;7074;51.508;7.018;2024-03-02T02:10:41;10.90;99.90
13998;DHT22;7074;51.508;7.018;2024-03-02T02:13:08;10.90;99.90
13998;DHT22;7074;51.508;7.018;2024-03-02T02:15:35;10.90;99.90
13998;DHT22;7074;51.508;7.018;2024-03-02T02:18:03;10.90;99.90
13998;DHT22;7074;51.508;7.018;2024-03-02T02:20:32;10.90;99.90
13998;DHT22;7074;51.508;7.018;2024-03-02T02:23:01;10.90;99.90
13998;DHT22;7074;51.508;7.018;2024-03-02T02:25:29;11.00;99.90
13998;DHT22;7074;51.508;7.018;2024-03-02T02:27:56;10.90;99.90
13998;DHT22;7074;51.508;7.018;2024-03-02T02:30:24;10.90;99.90
13998;DHT22;7074;51.508;7.018;2024-03-02T02:32:52;11.00;99.90
13998;DHT22;7074;51.508;7.018;2024-03-02T02:35:19;11.00;99.90
13998;DHT22;7074;51.508;7.018;2024-03-02T02:37:47;11.00;99.90
13998;DHT22;7074;51.508;7.018;2024-03-02T02:40:17;11.10;99.90
13998;DHT22;7074;51.508;7.018;2024-03-02T02:42:45;11.00;99.90
13998;DHT22;7074;51.508;7.018;2024-03-02T02:45:12;11.00;99.90
13998;DHT22;7074;51.508;7.018;2024-03-02T02:47:40;11.00;99.90
13998;DHT22;7074;51.508;7.018;2024-03-02T02:50:08;11.10;99.90
13998;DHT22;7074;51.508;7.018;2024-03-02T02:52:37;11.10;99.90
13998;DHT22;7074;51.508;7.018;2024-03-02T02:55:07;11.10;99.90
13998;DHT22;7074;51.508;7.018;2024-03-02T02:57:37;11.10;99.90
13998;DHT22;7074;51.508;7.018;2024-03-02T03:00:06;11.10;99.90
13998;DHT22;7074;51.508;7.018;2024-03-02T03:02:39;11.10;99.90
13998;DHT22;7074;51.508;7.018;2024-03-02T03:05:08;11.10;99.90
13998;DHT22;7074;51.508;7.018;2024-03-02T03:07:36;11.20;99.90
13998;DHT22;7074;51.508;7.018;2024-03-02T03:10:06;11.10;99.90
13998;DHT22;7074;51.508;7.018;2024-03-02T03:12:36;11.10;99.90
13998;DHT22;7074;51.508;7.018;2024-03-02T03:15:04;11.00;99.90
13998;DHT22;7074;51.508;7.018;2024-03-02T03:17:32;11.00;99.90
13998;DHT22;7074;51.508;7.018;2024-03-02T03:19:59;11.10;99.90
13998;DHT22;7074;51.508;7.018;2024-03-02T03:22:28;11.10;99.90
13998;DHT22;7074;51.508;7.018;2024-03-02T03:24:55;11.10;99.90
13998;DHT22;7074;51.508;7.018;2024-03-02T03:27:22;11.20;99.90
13998;DHT22;7074;51.508;7.018;2024-03-02T03:29:51;11.10;99.90
13998;DHT22;7074;51.508;7.018;2024-03-02T03:32:18;11.20;99.90
13998;DHT22;7074;51.508;7.018;2024-03-02T03:34:45;11.20;99.90
13998;DHT22;7074;51.508;7.018;2024-03-02T03:37:13;11.10;99.90
13998;DHT22;7074;51.508;7.018;2024-03-02T03:39:41;11.10;99.90
13998;DHT22;7074;51.508;7.018;2024-03-02T03:42:08;11.10;99.90
13998;DHT22;7074;51.508;7.018;2024-03-02T03:44:35;11.10;99.90
13998;DHT22;7074;51.508;7.018;2024-03-02T03:47:04;11.10;99.90
13998;DHT22;7074;51.508;7.018;2024-03-02T03:49:31;11.10;99.90
13998;DHT22;7074;51.508;7.018;2024-03-02T03:51:58;11.20;99.90
13998;DHT22;7074;51.508;7.018;2024-03-02T03:54:26;11.20;99.90
13998;DHT22;7074;51.508;7.018;2024-03-02T03:56:53;11.20;99.90
13998;DHT22;7074;51.508;7.018;2024-03-02T03:59:20;11.30;99.90
13998;DHT22;7074;51.508;7.018;2024-03-02T04:01:47;11.30;99.90
13998;DHT22;7074;51.508;7.018;2024-03-02T04:04:16;11.20;99.90
13998;DHT22;7074;51.508;7.018;2024-03-02T04:06:43;11.20;99.90
13998;DHT22;7074;51.508;7.018;2024-03-02T04:09:10;11.10;99.90
13998;DHT22;7074;51.508;7.018;2024-03-02T04:11:37;11.10;99.90
13998;DHT22;7074;51.508;7.018;2024-03-02T04:14:04;11.10;99.90
13998;DHT22;7074;51.508;7.018;2024-03-02T04:16:32;11.10;99.90
13998;DHT22;7074;51.508;7.018;2024-03-02T04:19:00;11.20;99.90
13998;DHT22;7074;51.508;7.018;2024-03-02T04:21:29;11.30;99.90
13998;DHT22;7074;51.508;7.018;2024-03-02T04:23:56;11.30;99.90
13998;DHT22;7074;51.508;7.018;2024-03-02T04:26:24;11.20;99.90
13998;DHT22;7074;51.508;7.018;2024-03-02T04:28:52;11.10;99.90
13998;DHT22;7074;51.508;7.018;2024-03-02T04:31:19;11.00;99.90
13998;DHT22;7074;51.508;7.018;2024-03-02T04:33:47;11.00;99.90
13998;DHT22;7074;51.508;7.018;2024-03-02T04:36:14;11.00;99.90
13998;DHT22;7074;51.508;7.018;2024-03-02T04:38:42;11.00;99.90
13998;DHT22;7074;51.508;7.018;2024-03-02T04:41:09;11.00;99.90
13998;DHT22;7074;51.508;7.018;2024-03-02T04:43:37;11.00;99.90
13998;DHT22;7074;51.508;7.018;2024-03-02T04:46:05;11.10;99.90
13998;DHT22;7074;51.508;7.018;2024-03-02T04:48:33;11.00;99.90
13998;DHT22;7074;51.508;7.018;2024-03-02T04:51:00;10.80;99.90
13998;DHT22;7074;51.508;7.018;2024-03-02T04:53:27;10.80;99.90
13998;DHT22;7074;51.508;7.018;2024-03-02T04:55:56;10.90;99.90
13998;DHT22;7074;51.508;7.018;2024-03-02T04:58:46;10.80;99.90
13998;DHT22;7074;51.508;7.018;2024-03-02T05:01:13;10.80;99.90
13998;DHT22;7074;51.508;7.018;2024-03-02T05:03:42;10.70;99.90
13998;DHT22;7074;51.508;7.018;2024-03-02T05:06:09;10.70;99.90
13998;DHT22;7074;51.508;7.018;2024-03-02T05:08:36;10.80;99.90
13998;DHT22;7074;51.508;7.018;2024-03-02T05:11:05;10.70;99.90
13998;DHT22;7074;51.508;7.018;2024-03-02T05:13:46;10.60;99.90
13998;DHT22;7074;51.508;7.018;2024-03-02T05:16:13;10.60;99.90
13998;DHT22;7074;51.508;7.018;2024-03-02T05:18:40;10.50;99.90
13998;DHT22;7074;51.508;7.018;2024-03-02T05:21:08;10.50;99.90
13998;DHT22;7074;51.508;7.018;2024-03-02T05:23:35;10.40;99.90
13998;DHT22;7074;51.508;7.018;2024-03-02T05:26:04;10.30;99.90
13998;DHT22;7074;51.508;7.018;2024-03-02T05:28:32;10.20;99.90
13998;DHT22;7074;51.508;7.018;2024-03-02T05:30:59;10.30;99.90
13998;DHT22;7074;51.508;7.018;2024-03-02T05:33:26;10.30;99.90
13998;DHT22;7074;51.508;7.018;2024-03-02T05:35:54;10.30;99.90
13998;DHT22;7074;51.508;7.018;2024-03-02T05:38:21;10.20;99.90
13998;DHT22;7074;51.508;7.018;2024-03-02T05:40:48;10.20;99.90
13998;DHT22;7074;51.508;7.018;2024-03-02T05:43:17;10.20;99.90
13998;DHT22;7074;51.508;7.018;2024-03-02T05:45:45;10.20;99.90
13998;DHT22;7074;51.508;7.018;2024-03-02T05:48:12;10.20;99.90
13998;DHT22;7074;51.508;7.018;2024-03-02T05:50:40;10.20;99.90
13998;DHT22;7074;51.508;7.018;2024-03-02T05:53:07;10.20;99.90
13998;DHT22;7074;51.508;7.018;2024-03-02T05:55:34;10.10;99.90
13998;DHT22;7074;51.508;7.018;2024-03-02T05:58:02;10.10;99.90
13998;DHT22;7074;51.508;7.018;2024-03-02T06:00:45;10.00;99.90
13998;DHT22;7074;51.508;7.018;2024-03-02T06:03:12;10.10;99.90
13998;DHT22;7074;51.508;7.018;2024-03-02T06:05:39;10.00;99.90
13998;DHT22;7074;51.508;7.018;2024-03-02T06:08:06;10.10;99.90
13998;DHT22;7074;51.508;7.018;2024-03-02T06:10:34;10.00;99.90
13998;DHT22;7074;51.508;7.018;2024-03-02T06:13:01;10.10;99.90
13998;DHT22;7074;51.508;7.018;2024-03-02T06:15:28;10.10;99.90
13998;DHT22;7074;51.508;7.018;2024-03-02T06:17:57;10.10;99.90
13998;DHT22;7074;51.508;7.018;2024-03-02T06:20:24;10.20;99.90
13998;DHT22;7074;51.508;7.018;2024-03-02T06:22:52;10.20;99.90
13998;DHT22;7074;51.508;7.018;2024-03-02T06:25:20;10.20;99.90
13998;DHT22;7074;51.508;7.018;2024-03-02T06:27:47;10.10;99.90
13998;DHT22;7074;51.508;7.018;2024-03-02T06:30:14;10.00;99.90
13998;DHT22;7074;51.508;7.018;2024-03-02T06:32:42;9.90;99.90
13998;DHT22;7074;51.508;7.018;2024-03-02T06:35:10;9.90;99.90
13998;DHT22;7074;51.508;7.018;2024-03-02T06:37:38;9.90;99.90
13998;DHT22;7074;51.508;7.018;2024-03-02T06:40:07;9.90;99.90
13998;DHT22;7074;51.508;7.018;2024-03-02T06:42:35;9.90;99.90
13998;DHT22;7074;51.508;7.018;2024-03-02T06:45:03;10.00;99.90
13998;DHT22;7074;51.508;7.018;2024-03-02T06:47:30;10.00;99.90
13998;DHT22;7074;51.508;7.018;2024-03-02T06:49:57;9.90;99.90
13998;DHT22;7074;51.508;7.018;2024-03-02T06:52:27;9.80;99.90
13998;DHT22;7074;51.508;7.018;2024-03-02T06:54:54;9.80;99.90
13998;DHT22;7074;51.508;7.018;2024-03-02T06:57:21;9.70;99.90
13998;DHT22;7074;51.508;7.018;2024-03-02T06:59:50;9.80;99.90
13998;DHT22;7074;51.508;7.018;2024-03-02T07:02:19;9.80;99.90
13998;DHT22;7074;51.508;7.018;2024-03-02T07:04:47;9.80;99.90
13998;DHT22;7074;51.508;7.018;2024-03-02T07:07:14;9.80;99.90
13998;DHT22;7074;51.508;7.018;2024-03-02T07:09:43;9.80;99.90
13998;DHT22;7074;51.508;7.018;2024-03-02T07:12:10;9.80;99.90
13998;DHT22;7074;51.508;7.018;2024-03-02T07:14:37;9.80;99.90
13998;DHT22;7074;51.508;7.018;2024-03-02T07:17:37;9.80;99.90
13998;DHT22;7074;51.508;7.018;2024-03-02T07:20:05;9.80;99.90
13998;DHT22;7074;51.508;7.018;2024-03-02T07:22:33;9.90;99.90
13998;DHT22;7074;51.508;7.018;2024-03-02T07:25:01;9.90;99.90
13998;DHT22;7074;51.508;7.018;2024-03-02T07:27:29;10.00;99.90
13998;DHT22;7074;51.508;7.018;2024-03-02T07:29:57;10.10;99.90
13998;DHT22;7074;51.508;7.018;2024-03-02T07:32:24;10.20;99.90
13998;DHT22;7074;51.508;7.018;2024-03-02T07:34:52;10.30;99.90
13998;DHT22;7074;51.508;7.018;2024-03-02T07:37:19;10.30;99.90
13998;DHT22;7074;51.508;7.018;2024-03-02T07:39:46;10.30;99.90
13998;DHT22;7074;51.508;7.018;2024-03-02T07:42:17;10.30;99.90
13998;DHT22;7074;51.508;7.018;2024-03-02T07:44:50;10.30;99.90
13998;DHT22;7074;51.508;7.018;2024-03-02T07:47:25;10.40;99.90
13998;DHT22;7074;51.508;7.018;2024-03-02T07:49:54;10.50;99.90
13998;DHT22;7074;51.508;7.018;2024-03-02T07:52:22;10.50;99.90
13998;DHT22;7074;51.508;7.018;2024-03-02T07:54:49;10.60;99.90
13998;DHT22;7074;51.508;7.018;2024-03-02T07:57:19;10.50;99.90
13998;DHT22;7074;51.508;7.018;2024-03-02T07:59:49;10.60;99.90
13998;DHT22;7074;51.508;7.018;2024-03-02T08:02:19;10.70;99.90
13998;DHT22;7074;51.508;7.018;2024-03-02T08:04:50;10.80;99.90
13998;DHT22;7074;51.508;7.018;2024-03-02T08:07:20;10.90;99.90
13998;DHT22;7074;51.508;7.018;2024-03-02T08:09:49;10.90;99.90
13998;DHT22;7074;51.508;7.018;2024-03-02T08:12:16;11.00;99.90
13998;DHT22;7074;51.508;7.018;2024-03-02T08:15:00;11.00;99.90
13998;DHT22;7074;51.508;7.018;2024-03-02T08:17:29;11.10;99.90
13998;DHT22;7074;51.508;7.018;2024-03-02T08:19:58;11.20;99.90
13998;DHT22;7074;51.508;7.018;2024-03-02T08:22:27;11.30;99.90
13998;DHT22;7074;51.508;7.018;2024-03-02T08:24:59;11.40;99.90
13998;DHT22;7074;51.508;7.018;2024-03-02T08:27:28;11.40;99.90
13998;DHT22;7074;51.508;7.018;2024-03-02T08:29:59;11.40;99.90
13998;DHT22;7074;51.508;7.018;2024-03-02T08:32:26;11.50;99.90
13998;DHT22;7074;51.508;7.018;2024-03-02T08:34:56;11.50;99.90
13998;DHT22;7074;51.508;7.018;2024-03-02T08:37:26;11.50;99.90
13998;DHT22;7074;51.508;7.018;2024-03-02T08:39:54;11.60;99.90
13998;DHT22;7074;51.508;7.018;2024-03-02T08:42:24;11.70;99.90
13998;DHT22;7074;51.508;7.018;2024-03-02T08:44:54;11.80;99.90
13998;DHT22;7074;51.508;7.018;2024-03-02T08:47:33;11.80;99.90
13998;DHT22;7074;51.508;7.018;2024-03-02T08:50:01;11.80;99.90
13998;DHT22;7074;51.508;7.018;2024-03-02T08:52:31;11.90;99.90
13998;DHT22;7074;51.508;7.018;2024-03-02T08:55:01;12.00;99.90
13998;DHT22;7074;51.508;7.018;2024-03-02T08:57:29;12.00;99.90
13998;DHT22;7074;51.508;7.018;2024-03-02T08:59:56;12.10;99.90
13998;DHT22;7074;51.508;7.018;2024-03-02T09:02:33;12.10;99.90
13998;DHT22;7074;51.508;7.018;2024-03-02T09:05:01;12.10;99.90
13998;DHT22;7074;51.508;7.018;2024-03-02T09:07:28;12.30;99.90
13998;DHT22;7074;51.508;7.018;2024-03-02T09:09:56;12.30;99.90
13998;DHT22;7074;51.508;7.018;2024-03-02T09:12:23;12.40;99.90
13998;DHT22;7074;51.508;7.018;2024-03-02T09:14:53;12.20;99.90
13998;DHT22;7074;51.508;7.018;2024-03-02T09:17:24;12.40;99.90
13998;DHT22;7074;51.508;7.018;2024-03-02T09:19:57;12.50;99.90
13998;DHT22;7074;51.508;7.018;2024-03-02T09:22:24;12.70;99.90
13998;DHT22;7074;51.508;7.018;2024-03-02T09:24:57;12.80;99.90
13998;DHT22;7074;51.508;7.018;2024-03-02T09:27:26;12.90;99.90
13998;DHT22;7074;51.508;7.018;2024-03-02T09:29:53;12.90;99.80
13998;DHT22;7074;51.508;7.018;2024-03-02T09:32:24;13.00;99.70
13998;DHT22;7074;51.508;7.018;2024-03-02T09:35:17;13.00;99.40
13998;DHT22;7074;51.508;7.018;2024-03-02T09:37:57;13.10;99.60
13998;DHT22;7074;51.508;7.018;2024-03-02T09:40:25;13.30;99.50
13998;DHT22;7074;51.508;7.018;2024-03-02T09:42:53;13.40;99.00
13998;DHT22;7074;51.508;7.018;2024-03-02T09:45:25;13.50;98.10
13998;DHT22;7074;51.508;7.018;2024-03-02T09:47:57;13.60;97.60
13998;DHT22;7074;51.508;7.018;2024-03-02T09:50:27;13.70;97.30
13998;DHT22;7074;51.508;7.018;2024-03-02T09:52:56;13.60;97.20
13998;DHT22;7074;51.508;7.018;2024-03-02T09:55:24;13.70;97.10
13998;DHT22;7074;51.508;7.018;2024-03-02T09:57:52;13.80;96.60
13998;DHT22;7074;51.508;7.018;2024-03-02T10:00:19;13.80;96.20
13998;DHT22;7074;51.508;7.018;2024-03-02T10:02:48;13.90;96.30
13998;DHT22;7074;51.508;7.018;2024-03-02T10:05:24;14.00;96.20
13998;DHT22;7074;51.508;7.018;2024-03-02T10:08:02;14.20;96.30
13998;DHT22;7074;51.508;7.018;2024-03-02T10:10:36;14.30;95.70
13998;DHT22;7074;51.508;7.018;2024-03-02T10:13:09;14.30;95.70
13998;DHT22;7074;51.508;7.018;2024-03-02T10:15:38;14.40;94.90
13998;DHT22;7074;51.508;7.018;2024-03-02T10:18:09;14.40;94.90
13998;DHT22;7074;51.508;7.018;2024-03-02T10:20:38;14.50;94.10
13998;DHT22;7074;51.508;7.018;2024-03-02T10:23:17;14.60;94.20
13998;DHT22;7074;51.508;7.018;2024-03-02T10:25:45;14.70;93.50
13998;DHT22;7074;51.508;7.018;2024-03-02T10:28:12;14.60;93.30
13998;DHT22;7074;51.508;7.018;2024-03-02T10:30:39;14.70;93.30
13998;DHT22;7074;51.508;7.018;2024-03-02T10:33:17;14.50;93.00
13998;DHT22;7074;51.508;7.018;2024-03-02T10:35:46;14.60;92.80
13998;DHT22;7074;51.508;7.018;2024-03-02T10:38:35;14.70;92.60
13998;DHT22;7074;51.508;7.018;2024-03-02T10:41:27;14.70;92.20
13998;DHT22;7074;51.508;7.018;2024-03-02T10:44:26;14.80;92.30
13998;DHT22;7074;51.508;7.018;2024-03-02T10:47:01;14.80;92.80
13998;DHT22;7074;51.508;7.018;2024-03-02T10:49:35;14.90;92.60
13998;DHT22;7074;51.508;7.018;2024-03-02T10:52:18;15.00;92.20
13998;DHT22;7074;51.508;7.018;2024-03-02T10:54:51;14.90;92.20
13998;DHT22;7074;51.508;7.018;2024-03-02T10:57:45;15.00;92.10
13998;DHT22;7074;51.508;7.018;2024-03-02T11:00:57;15.00;91.60
13998;DHT22;7074;51.508;7.018;2024-03-02T11:03:39;15.10;92.00
13998;DHT22;7074;51.508;7.018;2024-03-02T11:06:32;15.10;92.10
13998;DHT22;7074;51.508;7.018;2024-03-02T11:09:12;15.00;91.50
13998;DHT22;7074;51.508;7.018;2024-03-02T11:12:09;15.10;91.60
13998;DHT22;7074;51.508;7.018;2024-03-02T11:14:41;15.20;91.80
13998;DHT22;7074;51.508;7.018;2024-03-02T11:17:14;15.40;90.70
13998;DHT22;7074;51.508;7.018;2024-03-02T11:19:47;15.40;90.20
13998;DHT22;7074;51.508;7.018;2024-03-02T11:22:37;15.40;91.00
13998;DHT22;7074;51.508;7.018;2024-03-02T11:25:27;15.20;90.40
13998;DHT22;7074;51.508;7.018;2024-03-02T11:28:35;15.40;90.80
13998;DHT22;7074;51.508;7.018;2024-03-02T11:31:03;15.40;89.20
13998;DHT22;7074;51.508;7.018;2024-03-02T11:33:32;15.50;90.20
13998;DHT22;7074;51.508;7.018;2024-03-02T11:36:00;15.60;90.40
13998;DHT22;7074;51.508;7.018;2024-03-02T11:38:34;15.50;89.70
13998;DHT22;7074;51.508;7.018;2024-03-02T11:41:06;15.60;89.90
13998;DHT22;7074;51.508;7.018;2024-03-02T11:43:59;15.60;89.80
13998;DHT22;7074;51.508;7.018;2024-03-02T11:46:42;15.50;90.00
13998;DHT22;7074;51.508;7.018;2024-03-02T11:49:37;15.60;89.30
13998;DHT22;7074;51.508;7.018;2024-03-02T11:52:11;15.80;87.90
13998;DHT22;7074;51.508;7.018;2024-03-02T11:54:42;15.80;85.60
13998;DHT22;7074;51.508;7.018;2024-03-02T11:57:22;15.90;86.10
13998;DHT22;7074;51.508;7.018;2024-03-02T12:00:16;15.90;86.10
13998;DHT22;7074;51.508;7.018;2024-03-02T12:02:46;16.10;85.00
13998;DHT22;7074;51.508;7.018;2024-03-02T12:05:15;16.20;83.30
13998;DHT22;7074;51.508;7.018;2024-03-02T12:07:48;16.20;81.20
13998;DHT22;7074;51.508;7.018;2024-03-02T12:10:17;16.20;82.80
13998;DHT22;7074;51.508;7.018;2024-03-02T12:12:44;16.20;82.20
13998;DHT22;7074;51.508;7.018;2024-03-02T12:15:13;16.30;81.80
13998;DHT22;7074;51.508;7.018;2024-03-02T12:17:41;16.20;83.30
13998;DHT22;7074;51.508;7.018;2024-03-02T12:20:12;16.40;82.30
13998;DHT22;7074;51.508;7.018;2024-03-02T12:22:39;16.50;83.30
13998;DHT22;7074;51.508;7.018;2024-03-02T12:25:15;16.30;79.60
13998;DHT22;7074;51.508;7.018;2024-03-02T12:27:50;16.50;84.30
13998;DHT22;7074;51.508;7.018;2024-03-02T12:30:23;16.60;81.60
13998;DHT22;7074;51.508;7.018;2024-03-02T12:32:51;16.60;80.60
13998;DHT22;7074;51.508;7.018;2024-03-02T12:35:32;16.60;80.00
13998;DHT22;7074;51.508;7.018;2024-03-02T12:38:05;16.60;81.30
13998;DHT22;7074;51.508;7.018;2024-03-02T12:40:33;16.40;80.30
13998;DHT22;7074;51.508;7.018;2024-03-02T12:43:07;16.50;80.40
13998;DHT22;7074;51.508;7.018;2024-03-02T12:45:41;16.50;80.80
13998;DHT22;7074;51.508;7.018;2024-03-02T12:48:23;16.50;81.50
13998;DHT22;7074;51.508;7.018;2024-03-02T12:51:03;16.50;81.40
13998;DHT22;7074;51.508;7.018;2024-03-02T12:53:33;16.40;81.50
13998;DHT22;7074;51.508;7.018;2024-03-02T12:56:00;16.50;82.50
13998;DHT22;7074;51.508;7.018;2024-03-02T12:58:38;16.50;81.70
13998;DHT22;7074;51.508;7.018;2024-03-02T13:01:08;16.50;81.20
13998;DHT22;7074;51.508;7.018;2024-03-02T13:03:51;16.50;81.50
13998;DHT22;7074;51.508;7.018;2024-03-02T13:06:42;16.50;79.60
13998;DHT22;7074;51.508;7.018;2024-03-02T13:09:10;16.30;79.80
13998;DHT22;7074;51.508;7.018;2024-03-02T13:11:41;16.30;79.80
13998;DHT22;7074;51.508;7.018;2024-03-02T13:14:12;16.40;80.50
13998;DHT22;7074;51.508;7.018;2024-03-02T13:16:41;16.60;80.80
13998;DHT22;7074;51.508;7.018;2024-03-02T13:19:09;16.40;80.00
13998;DHT22;7074;51.508;7.018;2024-03-02T13:21:36;16.50;80.00
13998;DHT22;7074;51.508;7.018;2024-03-02T13:24:05;16.50;79.90
13998;DHT22;7074;51.508;7.018;2024-03-02T13:26:32;16.40;80.60
13998;DHT22;7074;51.508;7.018;2024-03-02T13:29:00;16.20;80.50
13998;DHT22;7074;51.508;7.018;2024-03-02T13:31:28;16.20;81.40
13998;DHT22;7074;51.508;7.018;2024-03-02T13:33:57;16.10;81.40
13998;DHT22;7074;51.508;7.018;2024-03-02T13:36:25;16.20;81.50
13998;DHT22;7074;51.508;7.018;2024-03-02T13:38:52;16.10;82.20
13998;DHT22;7074;51.508;7.018;2024-03-02T13:41:36;16.20;83.80
13998;DHT22;7074;51.508;7.018;2024-03-02T13:44:04;16.20;82.60
13998;DHT22;7074;51.508;7.018;2024-03-02T13:46:31;16.10;83.00
13998;DHT22;7074;51.508;7.018;2024-03-02T13:49:00;16.00;82.10
13998;DHT22;7074;51.508;7.018;2024-03-02T13:51:27;16.00;82.10
13998;DHT22;7074;51.508;7.018;2024-03-02T13:53:54;16.00;81.60
13998;DHT22;7074;51.508;7.018;2024-03-02T13:56:23;15.90;82.10
13998;DHT22;7074;51.508;7.018;2024-03-02T13:58:52;15.90;82.10
13998;DHT22;7074;51.508;7.018;2024-03-02T14:01:20;15.70;81.80
13998;DHT22;7074;51.508;7.018;2024-03-02T14:03:47;15.80;83.00
13998;DHT22;7074;51.508;7.018;2024-03-02T14:06:16;15.80;82.60
13998;DHT22;7074;51.508;7.018;2024-03-02T14:08:43;15.80;84.70
13998;DHT22;7074;51.508;7.018;2024-03-02T14:11:11;15.90;84.20
13998;DHT22;7074;51.508;7.018;2024-03-02T14:13:41;16.00;83.80
13998;DHT22;7074;51.508;7.018;2024-03-02T14:16:15;16.00;82.60
13998;DHT22;7074;51.508;7.018;2024-03-02T14:18:43;16.00;82.00
13998;DHT22;7074;51.508;7.018;2024-03-02T14:21:11;15.90;82.50
13998;DHT22;7074;51.508;7.018;2024-03-02T14:23:40;16.00;82.50
13998;DHT22;7074;51.508;7.018;2024-03-02T14:26:09;16.00;82.40
13998;DHT22;7074;51.508;7.018;2024-03-02T14:28:36;15.90;82.50
13998;DHT22;7074;51.508;7.018;2024-03-02T14:31:04;16.00;82.50
13998;DHT22;7074;51.508;7.018;2024-03-02T14:33:32;16.00;82.10
13998;DHT22;7074;51.508;7.018;2024-03-02T14:36:00;16.10;82.40
13998;DHT22;7074;51.508;7.018;2024-03-02T14:38:27;16.10;81.50
13998;DHT22;7074;51.508;7.018;2024-03-02T14:40:56;16.10;80.30
13998;DHT22;7074;51.508;7.018;2024-03-02T14:43:24;16.20;81.40
13998;DHT22;7074;51.508;7.018;2024-03-02T14:45:51;16.30;80.90
13998;DHT22;7074;51.508;7.018;2024-03-02T14:48:19;16.10;79.80
13998;DHT22;7074;51.508;7.018;2024-03-02T14:50:46;16.10;80.20
13998;DHT22;7074;51.508;7.018;2024-03-02T14:53:16;16.30;80.60
13998;DHT22;7074;51.508;7.018;2024-03-02T14:55:46;16.50;80.50
13998;DHT22;7074;51.508;7.018;2024-03-02T14:58:14;16.40;79.60
13998;DHT22;7074;51.508;7.018;2024-03-02T15:00:42;16.60;79.60
13998;DHT22;7074;51.508;7.018;2024-03-02T15:03:09;16.70;79.10
13998;DHT22;7074;51.508;7.018;2024-03-02T15:05:39;16.60;78.50
13998;DHT22;7074;51.508;7.018;2024-03-02T15:08:09;16.50;78.60
13998;DHT22;7074;51.508;7.018;2024-03-02T15:10:40;16.40;79.10
13998;DHT22;7074;51.508;7.018;2024-03-02T15:13:08;16.20;78.90
13998;DHT22;7074;51.508;7.018;2024-03-02T15:15:36;16.20;80.50
13998;DHT22;7074;51.508;7.018;2024-03-02T15:18:04;16.20;81.00
13998;DHT22;7074;51.508;7.018;2024-03-02T15:20:36;16.20;81.10
13998;DHT22;7074;51.508;7.018;2024-03-02T15:23:04;16.10;81.60
13998;DHT22;7074;51.508;7.018;2024-03-02T15:25:31;16.10;80.60
13998;DHT22;7074;51.508;7.018;2024-03-02T15:27:58;16.00;81.50
13998;DHT22;7074;51.508;7.018;2024-03-02T15:30:25;16.00;81.40
13998;DHT22;7074;51.508;7.018;2024-03-02T15:32:54;16.00;82.10
13998;DHT22;7074;51.508;7.018;2024-03-02T15:35:21;15.90;82.40
13998;DHT22;7074;51.508;7.018;2024-03-02T15:37:51;15.90;83.30
13998;DHT22;7074;51.508;7.018;2024-03-02T15:40:19;15.90;83.80
13998;DHT22;7074;51.508;7.018;2024-03-02T15:42:46;15.80;84.30
13998;DHT22;7074;51.508;7.018;2024-03-02T15:45:13;15.70;84.90
13998;DHT22;7074;51.508;7.018;2024-03-02T15:47:43;15.80;85.60
13998;DHT22;7074;51.508;7.018;2024-03-02T15:50:15;15.70;85.40
13998;DHT22;7074;51.508;7.018;2024-03-02T15:52:43;15.60;85.80
13998;DHT22;7074;51.508;7.018;2024-03-02T15:55:11;15.50;86.70
13998;DHT22;7074;51.508;7.018;2024-03-02T15:57:41;15.50;86.80
13998;DHT22;7074;51.508;7.018;2024-03-02T16:00:09;15.30;87.10
13998;DHT22;7074;51.508;7.018;2024-03-02T16:02:40;15.40;88.90
13998;DHT22;7074;51.508;7.018;2024-03-02T16:05:08;15.40;88.70
13998;DHT22;7074;51.508;7.018;2024-03-02T16:07:37;15.40;88.80